Time;durP1;ratioP1;P1;durP2;ratioP2;P2;SDS_P1;SDS_P2;PMS_P1;PMS_P2;Temp;Humidity;BMP_temperature;BMP_pressure;BME280_temperature;BME280_humidity;BME280_pressure;Samples;Min_cycle;Max_cycle;Signal;HPM_P1;HPM_P2
2022/12/09 00:01:39;;;;;;;43.75;17.95;;;-1.40;99.90;;;;;;6188684;23;20008;-73
2022/12/09 00:04:05;;;;;;;37.97;14.90;;;2.70;99.90;;;;;;6161190;23;20330;-73
2022/12/09 00:06:32;;;;;;;44.60;16.88;;;0.80;99.90;;;;;;6211768;23;20083;-76
2022/12/09 00:08:58;;;;;;;30.98;13.73;;;0.00;99.90;;;;;;6206907;23;20017;-74
2022/12/09 00:11:24;;;;;;;31.48;15.68;;;0.10;99.90;;;;;;6194119;23;20016;-76
2022/12/09 00:13:51;;;;;;;37.00;15.35;;;1.90;99.90;;;;;;6165909;23;20032;-74
2022/12/09 00:16:17;;;;;;;28.83;16.00;;;1.80;99.90;;;;;;6181845;23;20456;-75
2022/12/09 00:18:44;;;;;;;30.98;14.27;;;1.00;99.90;;;;;;6214057;23;20373;-74
2022/12/09 00:21:29;;;;;;;29.92;14.88;;;0.10;99.90;;;;;;6218893;23;20052;-75
2022/12/09 00:23:56;;;;;;;28.88;14.95;;;-0.10;99.90;;;;;;6218467;23;20305;-72
2022/12/09 00:26:23;;;;;;;32.25;14.60;;;-0.20;99.90;;;;;;6193238;23;20066;-73
2022/12/09 00:28:49;;;;;;;32.38;14.82;;;1.40;99.90;;;;;;6217924;23;20020;-73
2022/12/09 00:31:17;;;;;;;33.50;14.95;;;0.00;99.90;;;;;;6192695;23;20016;-76
2022/12/09 00:33:43;;;;;;;36.50;16.40;;;-0.10;99.90;;;;;;6218057;23;20072;-75
2022/12/09 00:36:11;;;;;;;37.45;16.77;;;0.20;99.90;;;;;;6218152;23;20039;-74
2022/12/09 00:38:37;;;;;;;26.95;13.48;;;0.00;99.90;;;;;;6217909;23;20016;-75
2022/12/09 00:41:03;;;;;;;30.02;15.15;;;0.80;99.90;;;;;;6218904;23;20441;-74
2022/12/09 00:43:31;;;;;;;30.38;15.45;;;-0.10;99.90;;;;;;6169757;23;20012;-75
2022/12/09 00:45:57;;;;;;;35.85;15.52;;;0.20;99.90;;;;;;6218136;23;20012;-76
2022/12/09 00:48:23;;;;;;;37.78;15.35;;;1.70;99.90;;;;;;6193759;23;20012;-73
2022/12/09 00:50:49;;;;;;;37.88;16.08;;;0.80;99.90;;;;;;6192800;23;20020;-72
2022/12/09 00:53:14;;;;;;;29.73;14.85;;;-0.10;99.90;;;;;;6193188;23;20411;-77
2022/12/09 00:55:40;;;;;;;29.67;14.90;;;0.00;99.90;;;;;;6168188;23;20211;-75
2022/12/09 00:58:06;;;;;;;28.23;13.80;;;0.00;99.90;;;;;;6193241;23;20426;-75
2022/12/09 01:00:32;;;;;;;32.63;14.23;;;0.40;99.90;;;;;;6218145;23;20027;-78
2022/12/09 01:02:57;;;;;;;34.80;16.38;;;0.10;99.90;;;;;;6193546;23;20012;-74
2022/12/09 01:05:23;;;;;;;43.40;17.23;;;0.50;99.90;;;;;;6192871;23;20067;-74
2022/12/09 01:07:49;;;;;;;41.17;16.58;;;0.90;99.90;;;;;;6243727;23;20017;-76
2022/12/09 01:10:15;;;;;;;34.55;15.27;;;0.20;99.90;;;;;;6167977;23;20020;-77
2022/12/09 01:12:41;;;;;;;36.83;16.50;;;0.40;99.90;;;;;;6193022;23;20295;-77
2022/12/09 01:15:07;;;;;;;33.83;14.45;;;1.00;99.90;;;;;;6219414;23;20067;-76
2022/12/09 01:17:34;;;;;;;30.42;15.65;;;0.20;99.90;;;;;;6218588;23;20255;-74
2022/12/09 01:20:00;;;;;;;30.77;13.57;;;0.20;99.90;;;;;;6190888;23;20325;-75
2022/12/09 01:22:28;;;;;;;30.27;15.63;;;0.20;99.90;;;;;;6208011;23;20028;-77
2022/12/09 01:25:05;;;;;;;36.78;16.02;;;1.20;99.90;;;;;;6193045;23;20032;-74
2022/12/09 01:27:31;;;;;;;32.65;14.13;;;0.40;99.90;;;;;;6187409;23;20055;-77
2022/12/09 01:29:57;;;;;;;35.80;16.23;;;0.50;99.90;;;;;;6205366;23;20021;-77
2022/12/09 01:32:23;;;;;;;32.25;14.15;;;0.20;99.90;;;;;;6184029;23;20479;-77
2022/12/09 01:34:52;;;;;;;32.00;14.07;;;1.90;99.90;;;;;;6190762;23;20203;-73
2022/12/09 01:37:17;;;;;;;30.80;12.43;;;0.80;99.90;;;;;;6167606;23;20008;-75
2022/12/09 01:39:46;;;;;;;32.40;13.90;;;0.50;99.90;;;;;;6219676;23;20020;-79
2022/12/09 01:42:28;;;;;;;30.25;14.18;;;0.00;99.90;;;;;;6197874;23;20009;-76
2022/12/09 01:45:18;;;;;;;31.17;13.48;;;0.30;99.90;;;;;;6218840;23;20016;-74
2022/12/09 01:47:50;;;;;;;26.48;13.43;;;0.40;99.90;;;;;;6193840;23;20054;-75
2022/12/09 01:50:44;;;;;;;29.05;12.93;;;0.80;99.90;;;;;;6220141;23;20383;-74
2022/12/09 01:53:11;;;;;;;27.40;13.60;;;2.70;99.90;;;;;;6189433;23;20016;-75
2022/12/09 01:55:39;;;;;;;41.92;16.80;;;0.50;99.90;;;;;;6191479;23;20016;-75
2022/12/09 01:58:05;;;;;;;29.98;12.68;;;3.50;99.90;;;;;;6216048;23;20005;-75
2022/12/09 02:00:48;;;;;;;35.53;15.57;;;0.90;99.90;;;;;;6194451;23;20020;-76
2022/12/09 02:03:30;;;;;;;30.95;13.43;;;0.90;99.90;;;;;;6193108;23;20016;-75
2022/12/09 02:05:58;;;;;;;31.40;14.43;;;1.40;99.90;;;;;;6217633;23;20048;-73
2022/12/09 02:08:30;;;;;;;39.03;16.00;;;0.50;99.90;;;;;;6168464;23;20020;-74
2022/12/09 02:11:17;;;;;;;29.00;14.10;;;0.50;99.90;;;;;;6169823;23;20062;-75
2022/12/09 02:14:05;;;;;;;44.53;14.95;;;0.60;99.90;;;;;;6194039;23;20016;-75
2022/12/09 02:16:39;;;;;;;34.13;14.18;;;1.20;99.90;;;;;;6218542;23;20017;-75
2022/12/09 02:19:47;;;;;;;29.27;12.75;;;0.60;99.90;;;;;;6218612;23;20187;-76
2022/12/09 02:22:20;;;;;;;30.65;12.52;;;0.80;99.90;;;;;;6219462;23;20030;-77
2022/12/09 02:25:03;;;;;;;28.48;13.43;;;2.60;99.90;;;;;;6218526;23;20310;-74
2022/12/09 02:27:58;;;;;;;30.00;14.10;;;0.40;99.90;;;;;;6218707;23;20046;-77
2022/12/09 02:33:51;;;;;;;28.80;13.07;;;1.10;99.90;;;;;;6207337;23;20028;-75
2022/12/09 02:36:55;;;;;;;26.92;12.68;;;0.50;99.90;;;;;;6220142;23;20040;-74
2022/12/09 02:39:28;;;;;;;26.92;12.90;;;1.30;99.90;;;;;;6164590;23;20013;-74
2022/12/09 02:41:56;;;;;;;32.30;14.07;;;0.40;99.90;;;;;;6164421;23;20080;-75
2022/12/09 02:44:24;;;;;;;23.70;11.40;;;0.40;99.90;;;;;;6195954;23;20316;-76
2022/12/09 02:46:52;;;;;;;30.25;14.27;;;0.40;99.90;;;;;;6194574;23;20255;-72
2022/12/09 02:49:20;;;;;;;27.23;12.15;;;0.50;99.90;;;;;;6220441;23;20020;-78
2022/12/09 02:51:48;;;;;;;28.05;11.50;;;1.90;99.90;;;;;;6196306;23;20016;-75
2022/12/09 02:54:17;;;;;;;26.67;11.73;;;0.70;99.90;;;;;;6221633;23;20008;-75
2022/12/09 02:56:50;;;;;;;23.17;11.40;;;2.30;99.90;;;;;;6221529;23;20020;-77
2022/12/09 02:59:15;;;;;;;25.05;11.20;;;0.50;99.90;;;;;;6195894;23;20051;-74
2022/12/09 03:02:13;;;;;;;22.55;10.20;;;0.50;99.90;;;;;;6218803;23;20048;-74
2022/12/09 03:04:45;;;;;;;26.88;13.00;;;0.30;99.90;;;;;;6193393;23;20020;-73
2022/12/09 03:07:42;;;;;;;27.52;10.88;;;2.60;99.90;;;;;;6219400;23;20021;-78
2022/12/09 03:10:16;;;;;;;28.88;12.02;;;0.40;99.90;;;;;;6219669;23;20229;-75
2022/12/09 03:12:50;;;;;;;25.50;10.70;;;0.20;99.90;;;;;;6193877;23;20323;-77
2022/12/09 03:19:31;;;;;;;22.80;10.30;;;-0.90;99.90;;;;;;6209851;23;20021;-76
2022/12/09 03:22:01;;;;;;;23.17;10.93;;;0.70;99.90;;;;;;6139906;23;20378;-74
2022/12/09 03:24:33;;;;;;;23.88;10.48;;;-0.10;99.90;;;;;;6189395;23;20017;-75
2022/12/09 03:27:05;;;;;;;20.92;10.73;;;-1.30;99.90;;;;;;6140819;23;20095;-75
2022/12/09 03:29:35;;;;;;;21.75;11.52;;;2.30;99.90;;;;;;6164593;23;20020;-74
2022/12/09 03:32:01;;;;;;;24.27;11.23;;;2.60;99.90;;;;;;6163453;23;20212;-74
2022/12/09 03:34:31;;;;;;;26.02;11.27;;;1.00;99.90;;;;;;6115856;23;20016;-76
2022/12/09 03:37:17;;;;;;;29.85;12.35;;;2.80;99.90;;;;;;6139049;23;20099;-75
2022/12/09 03:39:45;;;;;;;29.27;11.80;;;0.20;99.90;;;;;;6139012;23;20032;-77
2022/12/09 03:42:25;;;;;;;24.10;11.63;;;0.70;99.90;;;;;;6165274;23;20334;-76
2022/12/09 03:44:59;;;;;;;23.80;11.07;;;3.10;99.90;;;;;;6140866;23;20013;-74
2022/12/09 03:47:26;;;;;;;25.95;11.75;;;0.30;99.90;;;;;;6190567;23;20020;-78
2022/12/09 03:49:52;;;;;;;23.98;10.82;;;2.50;99.90;;;;;;6165391;23;20012;-75
2022/12/09 03:52:31;;;;;;;28.00;13.13;;;0.70;99.90;;;;;;6116510;23;20047;-76
2022/12/09 03:55:02;;;;;;;28.02;12.57;;;0.60;99.90;;;;;;6140520;23;20056;-77
2022/12/09 03:57:30;;;;;;;28.23;13.60;;;2.30;99.90;;;;;;6140761;23;20020;-76
2022/12/09 03:59:59;;;;;;;27.90;12.63;;;1.40;99.90;;;;;;6138325;23;20020;-75
2022/12/09 04:02:26;;;;;;;24.55;11.80;;;0.40;99.90;;;;;;6163061;23;20036;-75
2022/12/09 04:04:52;;;;;;;26.48;11.82;;;1.70;99.90;;;;;;6139464;23;20216;-73
2022/12/09 04:07:23;;;;;;;26.58;11.57;;;0.70;99.90;;;;;;6115615;23;20021;-75
2022/12/09 04:09:49;;;;;;;22.88;11.57;;;0.50;99.90;;;;;;6142729;23;20036;-76
2022/12/09 04:12:15;;;;;;;24.83;12.75;;;0.50;99.90;;;;;;6139198;23;20099;-74
2022/12/09 04:14:46;;;;;;;23.27;10.98;;;0.10;99.90;;;;;;6140665;23;20298;-75
2022/12/09 04:17:11;;;;;;;23.73;11.15;;;-0.20;99.90;;;;;;6163494;23;20017;-77
2022/12/09 04:19:37;;;;;;;21.88;10.10;;;-0.40;99.90;;;;;;6142797;23;20052;-77
2022/12/09 04:22:03;;;;;;;27.23;11.52;;;-0.20;99.90;;;;;;6218792;23;20074;-74
2022/12/09 04:24:29;;;;;;;23.08;11.00;;;0.00;99.90;;;;;;6194317;23;20055;-73
2022/12/09 04:26:55;;;;;;;22.65;11.10;;;-0.30;99.90;;;;;;6193004;23;20239;-74
2022/12/09 04:29:20;;;;;;;23.27;10.93;;;1.10;99.90;;;;;;6218503;23;20074;-74
2022/12/09 04:31:46;;;;;;;26.23;10.75;;;-0.20;99.90;;;;;;6194741;23;20051;-74
2022/12/09 04:34:12;;;;;;;22.05;10.63;;;-0.50;99.90;;;;;;6169178;23;20219;-74
2022/12/09 04:36:38;;;;;;;24.25;11.80;;;-0.20;99.90;;;;;;6195029;23;20019;-74
2022/12/09 04:39:03;;;;;;;23.90;10.27;;;-0.20;99.90;;;;;;6169708;23;20035;-78
2022/12/09 04:41:29;;;;;;;20.23;10.77;;;0.40;99.90;;;;;;6220992;23;20321;-75
2022/12/09 04:43:55;;;;;;;23.00;9.93;;;-0.30;99.90;;;;;;6193962;23;20079;-78
2022/12/09 04:46:21;;;;;;;25.58;11.05;;;-0.40;99.90;;;;;;6194858;23;20076;-73
2022/12/09 04:48:46;;;;;;;24.23;10.80;;;-0.70;99.90;;;;;;6193447;23;20009;-77
2022/12/09 04:51:14;;;;;;;28.83;11.85;;;-0.30;99.90;;;;;;6170019;23;20103;-73
2022/12/09 04:53:40;;;;;;;20.98;10.48;;;-0.40;99.90;;;;;;6194868;23;20016;-74
2022/12/09 04:56:10;;;;;;;21.20;10.05;;;-0.30;99.90;;;;;;6194432;23;20015;-79
2022/12/09 04:58:36;;;;;;;24.30;10.40;;;-0.60;99.90;;;;;;6219206;23;20015;-76
2022/12/09 05:01:06;;;;;;;24.67;11.57;;;-0.50;99.90;;;;;;6218984;23;20075;-77
2022/12/09 05:03:32;;;;;;;21.63;10.68;;;-0.40;99.90;;;;;;6167502;23;20258;-75
2022/12/09 05:09:42;;;;;;;28.02;12.48;;;2.40;99.90;;;;;;6197780;23;20017;-75
2022/12/09 05:19:05;;;;;;;25.08;10.80;;;-0.20;99.90;;;;;;6219608;23;20254;-75
2022/12/09 05:21:30;;;;;;;24.25;10.73;;;-1.50;99.90;;;;;;6193814;23;20046;-74
2022/12/09 05:23:56;;;;;;;26.33;10.57;;;1.80;99.90;;;;;;6218643;23;20307;-74
2022/12/09 05:26:25;;;;;;;22.08;10.00;;;-0.40;99.90;;;;;;6192698;23;20203;-75
2022/12/09 05:28:51;;;;;;;24.20;10.75;;;-0.60;99.90;;;;;;6217064;23;20061;-75
2022/12/09 05:31:25;;;;;;;24.05;10.40;;;-0.40;99.90;;;;;;6169086;23;20013;-76
2022/12/09 05:33:51;;;;;;;22.00;10.98;;;-0.40;99.90;;;;;;6217304;23;20242;-74
2022/12/09 05:36:19;;;;;;;24.45;10.80;;;-0.50;99.90;;;;;;6191559;23;20009;-77
2022/12/09 05:38:45;;;;;;;27.65;11.73;;;-0.60;99.90;;;;;;6189572;23;20013;-74
2022/12/09 05:41:20;;;;;;;24.20;10.52;;;-0.70;99.90;;;;;;6165121;23;20019;-79
2022/12/09 05:43:46;;;;;;;25.13;10.93;;;-0.70;99.90;;;;;;6216602;23;20055;-76
2022/12/09 05:46:12;;;;;;;26.45;11.73;;;-0.30;99.90;;;;;;6192035;23;20088;-73
2022/12/09 05:48:41;;;;;;;26.17;11.25;;;-0.70;99.90;;;;;;6192252;23;20295;-73
2022/12/09 05:51:25;;;;;;;23.92;11.15;;;1.90;99.90;;;;;;6194556;23;20119;-76
2022/12/09 05:53:51;;;;;;;32.17;11.90;;;-0.70;99.90;;;;;;6218187;23;20016;-75
2022/12/09 05:56:23;;;;;;;24.38;11.50;;;-0.70;99.90;;;;;;6192695;23;20559;-77
2022/12/09 05:58:50;;;;;;;21.80;11.63;;;-0.80;99.90;;;;;;6192051;23;20044;-77
2022/12/09 06:01:16;;;;;;;27.58;11.85;;;-0.60;99.90;;;;;;6216597;23;20498;-76
2022/12/09 06:03:42;;;;;;;26.02;12.23;;;-0.30;99.90;;;;;;6218845;23;20071;-75
2022/12/09 06:06:11;;;;;;;28.80;12.45;;;-0.40;99.90;;;;;;6193710;23;20337;-75
2022/12/09 06:08:38;;;;;;;25.25;11.20;;;-0.40;99.90;;;;;;6218737;23;20021;-75
2022/12/09 06:11:04;;;;;;;31.98;13.98;;;-0.40;99.90;;;;;;6218849;23;20323;-74
2022/12/09 06:13:29;;;;;;;28.30;14.10;;;-0.70;99.90;;;;;;6219753;23;20008;-75
2022/12/09 06:16:00;;;;;;;35.13;13.93;;;-0.30;99.90;;;;;;6195009;23;20071;-75
2022/12/09 06:18:26;;;;;;;24.63;11.85;;;-0.30;99.90;;;;;;6219175;23;20008;-73
2022/12/09 06:20:51;;;;;;;30.48;13.75;;;-0.60;99.90;;;;;;6218328;23;20021;-76
2022/12/09 06:23:17;;;;;;;28.23;12.95;;;-0.50;99.90;;;;;;6193263;23;20066;-74
2022/12/09 06:25:44;;;;;;;29.25;13.52;;;-0.10;99.90;;;;;;6193874;23;20032;-75
2022/12/09 06:28:10;;;;;;;26.55;13.02;;;0.00;99.90;;;;;;6193450;23;20016;-75
2022/12/09 06:30:36;;;;;;;26.55;13.43;;;0.00;99.90;;;;;;6193827;23;20123;-75
2022/12/09 06:33:02;;;;;;;29.20;13.15;;;1.00;99.90;;;;;;6169938;23;20234;-76
2022/12/09 06:35:27;;;;;;;27.02;12.57;;;-0.50;99.90;;;;;;6167256;23;20012;-74
2022/12/09 06:37:53;;;;;;;31.88;13.98;;;-0.50;99.90;;;;;;6193817;23;20064;-74
2022/12/09 06:40:23;;;;;;;30.52;13.05;;;-0.50;99.90;;;;;;6218495;23;20019;-77
2022/12/09 06:42:50;;;;;;;28.15;12.40;;;-0.60;99.90;;;;;;6169453;23;20020;-74
2022/12/09 06:45:16;;;;;;;28.42;12.05;;;-0.30;99.90;;;;;;6218328;23;20019;-76
2022/12/09 06:47:42;;;;;;;29.33;12.48;;;-0.40;99.90;;;;;;6219742;23;20050;-77
2022/12/09 06:50:08;;;;;;;31.50;12.13;;;-0.50;99.90;;;;;;6219970;23;20013;-75
2022/12/09 06:52:36;;;;;;;30.98;13.32;;;-0.80;99.90;;;;;;6220973;23;20009;-75
2022/12/09 06:55:06;;;;;;;33.33;15.20;;;-0.50;99.90;;;;;;6195679;23;20044;-75
2022/12/09 06:57:32;;;;;;;31.85;15.45;;;-0.80;99.90;;;;;;6220068;23;20020;-75
2022/12/09 06:59:57;;;;;;;32.30;14.82;;;-0.60;99.90;;;;;;6194806;23;20313;-75
2022/12/09 07:02:23;;;;;;;28.05;13.20;;;-0.40;99.90;;;;;;6170636;23;20008;-78
2022/12/09 07:04:53;;;;;;;36.03;13.77;;;-0.60;99.90;;;;;;6219385;23;20051;-77
2022/12/09 07:07:19;;;;;;;35.75;15.13;;;-0.60;99.90;;;;;;6193685;23;20008;-75
2022/12/09 07:09:45;;;;;;;28.45;12.95;;;-0.50;99.90;;;;;;6194512;23;20063;-74
2022/12/09 07:12:11;;;;;;;34.38;15.57;;;-0.60;99.90;;;;;;6195178;23;20009;-73
2022/12/09 07:14:36;;;;;;;34.90;15.45;;;-0.30;99.90;;;;;;6195853;23;20015;-75
2022/12/09 07:17:03;;;;;;;33.80;13.93;;;0.50;99.90;;;;;;6195816;23;20129;-76
2022/12/09 07:19:29;;;;;;;28.67;13.25;;;-0.20;99.90;;;;;;6220131;23;20032;-76
2022/12/09 07:21:57;;;;;;;36.38;14.75;;;-0.10;99.90;;;;;;6196329;23;20031;-77
2022/12/09 07:24:24;;;;;;;37.85;14.82;;;1.80;99.90;;;;;;6196199;23;20113;-78
2022/12/09 07:26:49;;;;;;;38.63;16.05;;;-0.10;99.90;;;;;;6172019;23;20012;-75
2022/12/09 07:29:17;;;;;;;31.10;14.77;;;-0.20;99.90;;;;;;6219944;23;20020;-74
2022/12/09 07:31:43;;;;;;;29.08;13.20;;;-0.10;99.90;;;;;;6193385;23;20010;-74
2022/12/09 07:34:10;;;;;;;31.83;14.15;;;0.00;99.90;;;;;;6220420;23;20008;-74
2022/12/09 07:36:36;;;;;;;33.90;16.08;;;0.10;99.90;;;;;;6195107;23;20017;-75
2022/12/09 07:39:14;;;;;;;30.48;14.77;;;0.00;99.90;;;;;;6196096;23;20072;-75
2022/12/09 07:41:40;;;;;;;35.67;16.65;;;-0.20;99.90;;;;;;6194333;23;20511;-76
2022/12/09 07:44:06;;;;;;;30.92;13.57;;;-0.10;99.90;;;;;;6195340;23;20023;-75
2022/12/09 07:46:32;;;;;;;34.97;15.35;;;0.00;99.90;;;;;;6194863;23;20017;-76
2022/12/09 07:49:00;;;;;;;36.58;15.40;;;0.00;99.90;;;;;;6195568;23;20062;-75
2022/12/09 07:51:25;;;;;;;34.88;14.80;;;0.30;99.90;;;;;;6194622;23;20016;-77
2022/12/09 07:53:52;;;;;;;32.20;14.93;;;2.00;99.90;;;;;;6170783;23;20082;-75
2022/12/09 07:56:18;;;;;;;35.35;14.98;;;0.30;99.90;;;;;;6220371;23;20013;-73
2022/12/09 07:58:49;;;;;;;31.98;14.85;;;0.20;99.90;;;;;;6195669;23;20009;-73
2022/12/09 08:01:34;;;;;;;38.05;16.08;;;0.90;99.90;;;;;;6193344;23;20028;-76
2022/12/09 08:04:30;;;;;;;35.28;15.23;;;0.10;99.90;;;;;;6194460;23;20012;-76
2022/12/09 08:06:57;;;;;;;33.35;14.88;;;0.10;99.90;;;;;;6194879;23;20013;-75
2022/12/09 08:09:26;;;;;;;34.45;15.88;;;1.00;99.90;;;;;;6219327;23;20040;-75
2022/12/09 08:11:55;;;;;;;38.60;16.40;;;2.60;99.90;;;;;;6217353;23;20008;-74
2022/12/09 08:14:21;;;;;;;41.05;17.30;;;0.50;99.90;;;;;;6217696;23;20388;-75
2022/12/09 08:16:47;;;;;;;35.78;15.73;;;0.10;99.90;;;;;;6192748;23;20016;-76
2022/12/09 08:19:12;;;;;;;36.75;15.52;;;2.70;99.90;;;;;;6190740;23;20009;-75
2022/12/09 08:21:41;;;;;;;35.10;16.42;;;2.60;99.90;;;;;;6168521;23;20020;-76
2022/12/09 08:24:09;;;;;;;34.47;15.77;;;-1.10;99.90;;;;;;6217589;23;20084;-77
2022/12/09 08:27:08;;;;;;;39.88;18.75;;;-0.90;99.90;;;;;;6192890;23;20008;-77
2022/12/09 08:29:53;;;;;;;46.92;17.92;;;1.70;99.90;;;;;;6178748;23;20017;-76
2022/12/09 08:32:19;;;;;;;47.75;20.23;;;0.80;99.90;;;;;;6194003;23;20012;-76
2022/12/09 08:34:45;;;;;;;40.65;20.38;;;2.70;99.90;;;;;;6219972;23;20036;-77
2022/12/09 08:37:10;;;;;;;38.13;18.70;;;0.90;99.90;;;;;;6193111;23;20027;-77
2022/12/09 08:39:36;;;;;;;36.42;18.77;;;0.70;99.90;;;;;;6166888;23;20044;-76
2022/12/09 08:42:02;;;;;;;32.08;16.02;;;2.10;99.90;;;;;;6192834;23;20322;-75
2022/12/09 08:44:28;;;;;;;29.17;16.65;;;0.90;99.90;;;;;;6190467;23;20502;-76
2022/12/09 08:46:53;;;;;;;32.65;16.73;;;0.60;99.90;;;;;;6192094;23;20075;-75
2022/12/09 08:49:21;;;;;;;28.08;14.50;;;1.30;99.90;;;;;;6191220;23;22331;-76
2022/12/09 08:51:48;;;;;;;30.73;16.50;;;1.70;99.90;;;;;;6217064;23;20022;-78
2022/12/09 08:54:17;;;;;;;37.53;16.65;;;1.10;99.90;;;;;;6190905;23;20038;-78
2022/12/09 08:56:52;;;;;;;36.45;17.45;;;-0.60;99.90;;;;;;6191563;23;20176;-76
2022/12/09 08:59:17;;;;;;;32.17;16.92;;;1.20;99.90;;;;;;6215190;23;20549;-76
2022/12/09 09:01:47;;;;;;;35.35;17.40;;;0.90;99.90;;;;;;6216551;23;20017;-75
2022/12/09 09:04:19;;;;;;;34.75;16.55;;;1.30;99.90;;;;;;6191255;23;20024;-75
2022/12/09 09:06:48;;;;;;;32.00;16.15;;;1.00;99.90;;;;;;6216268;23;20096;-76
2022/12/09 09:09:14;;;;;;;33.40;16.98;;;1.30;99.90;;;;;;6215976;23;20086;-75
2022/12/09 09:11:42;;;;;;;32.75;16.33;;;3.50;99.90;;;;;;6217788;23;20009;-76
2022/12/09 09:14:10;;;;;;;31.75;15.60;;;2.20;99.90;;;;;;6218409;23;20038;-77
2022/12/09 09:16:38;;;;;;;35.25;17.15;;;1.10;99.90;;;;;;6215831;23;20023;-77
2022/12/09 09:19:04;;;;;;;31.15;16.25;;;1.50;99.90;;;;;;6193356;23;20016;-76
2022/12/09 09:21:34;;;;;;;30.67;16.48;;;2.40;99.90;;;;;;6167042;23;20018;-77
2022/12/09 09:24:23;;;;;;;31.88;15.27;;;3.80;99.90;;;;;;6194956;23;20059;-78
2022/12/09 09:26:50;;;;;;;26.27;14.32;;;3.20;99.90;;;;;;6215369;23;20012;-76
2022/12/09 09:29:28;;;;;;;28.67;16.45;;;4.60;99.90;;;;;;6218199;23;20030;-75
2022/12/09 09:31:56;;;;;;;25.40;14.18;;;3.00;99.90;;;;;;6193696;23;20028;-76
2022/12/09 09:34:23;;;;;;;34.20;13.80;;;2.60;99.90;;;;;;6190743;23;20017;-76
2022/12/09 09:36:50;;;;;;;44.35;15.52;;;3.60;99.90;;;;;;6218133;23;20011;-76
2022/12/09 09:39:19;;;;;;;28.40;14.98;;;3.90;99.90;;;;;;6218098;23;20243;-74
2022/12/09 09:45:51;;;;;;;31.33;16.38;;;2.40;99.90;;;;;;6156050;23;20021;-75
2022/12/09 09:52:02;;;;;;;28.75;15.50;;;3.40;99.90;;;;;;6208913;23;20024;-75
2022/12/09 09:54:27;;;;;;;30.35;16.50;;;3.00;99.90;;;;;;6192411;23;20076;-74
2022/12/09 09:57:02;;;;;;;28.90;15.93;;;3.70;99.90;;;;;;6193097;23;20017;-73
2022/12/09 09:59:49;;;;;;;28.17;16.40;;;3.50;99.90;;;;;;6192599;23;20020;-76
2022/12/09 10:02:49;;;;;;;27.05;14.52;;;3.70;99.90;;;;;;6191080;23;20223;-72
2022/12/09 10:07:13;;;;;;;28.17;15.90;;;4.10;99.90;;;;;;6192624;23;20015;-73
2022/12/09 10:09:42;;;;;;;27.75;14.38;;;4.60;99.90;;;;;;6174914;23;20027;-73
2022/12/09 10:12:29;;;;;;;28.23;14.93;;;4.80;99.90;;;;;;6194754;23;20009;-73
2022/12/09 10:15:12;;;;;;;25.67;14.80;;;3.80;99.90;;;;;;6218685;23;20008;-70
2022/12/09 10:21:08;;;;;;;24.13;13.90;;;3.90;99.90;;;;;;6214422;23;20428;-71
2022/12/09 10:23:34;;;;;;;23.42;13.68;;;3.90;99.90;;;;;;6219594;23;20032;-70
2022/12/09 10:26:03;;;;;;;24.48;14.55;;;4.80;99.90;;;;;;6194756;23;20023;-72
2022/12/09 10:28:45;;;;;;;23.27;14.30;;;4.30;99.90;;;;;;6194468;23;20044;-73
2022/12/09 10:31:11;;;;;;;23.60;14.68;;;4.30;99.90;;;;;;6220916;23;20012;-71
2022/12/09 10:33:38;;;;;;;23.92;14.55;;;3.80;99.90;;;;;;6192857;23;20023;-71
2022/12/09 10:36:24;;;;;;;24.33;14.25;;;3.70;99.90;;;;;;6218748;23;20009;-72
2022/12/09 10:38:58;;;;;;;23.63;14.13;;;3.60;99.90;;;;;;6195441;23;20023;-73
2022/12/09 10:44:38;;;;;;;23.10;13.50;;;3.30;99.90;;;;;;6219117;23;20323;-73
2022/12/09 10:47:23;;;;;;;24.40;15.05;;;3.50;99.90;;;;;;6217878;23;20024;-73
2022/12/09 10:49:52;;;;;;;21.90;13.25;;;3.10;99.90;;;;;;6219684;23;20066;-75
2022/12/09 10:52:27;;;;;;;23.52;13.75;;;2.60;99.90;;;;;;6219055;23;20089;-74
2022/12/09 10:54:53;;;;;;;24.48;14.38;;;2.60;99.90;;;;;;6193279;23;20017;-74
2022/12/09 10:57:25;;;;;;;24.25;13.75;;;3.10;99.90;;;;;;6167573;23;20288;-74
2022/12/09 10:59:59;;;;;;;24.85;14.93;;;2.20;99.90;;;;;;6219117;23;20013;-74
2022/12/09 11:02:25;;;;;;;23.02;14.20;;;1.70;99.90;;;;;;6217941;23;20019;-74
2022/12/09 11:04:51;;;;;;;25.83;14.25;;;1.50;99.90;;;;;;6167886;23;20021;-74
2022/12/09 11:07:20;;;;;;;25.75;14.35;;;1.30;99.90;;;;;;6217947;23;20231;-73
2022/12/09 11:09:54;;;;;;;26.98;15.25;;;1.30;99.90;;;;;;6192327;23;20020;-73
2022/12/09 11:12:26;;;;;;;25.77;14.07;;;1.40;99.90;;;;;;6193396;23;20056;-73
2022/12/09 11:15:03;;;;;;;26.98;14.98;;;1.20;99.90;;;;;;6218001;23;20008;-73
2022/12/09 11:17:35;;;;;;;30.85;15.98;;;1.00;99.90;;;;;;6191087;23;20027;-75
2022/12/09 11:20:04;;;;;;;26.83;14.98;;;1.20;99.90;;;;;;6218649;23;20048;-74
2022/12/09 11:22:41;;;;;;;31.40;16.40;;;1.20;99.90;;;;;;6193428;23;20533;-75
2022/12/09 11:25:16;;;;;;;25.42;13.77;;;1.30;99.90;;;;;;6193190;23;20083;-70
2022/12/09 11:28:13;;;;;;;30.08;16.33;;;1.20;99.90;;;;;;6193331;23;20039;-72
2022/12/09 11:30:55;;;;;;;30.20;14.85;;;1.20;99.90;;;;;;6191589;23;20483;-71
2022/12/09 11:33:28;;;;;;;35.58;17.00;;;1.30;99.90;;;;;;6220472;23;20008;-71
2022/12/09 11:36:08;;;;;;;27.88;14.48;;;1.10;99.90;;;;;;6218312;23;20009;-72
2022/12/09 11:38:48;;;;;;;29.27;15.68;;;1.20;99.90;;;;;;6217964;23;20283;-72
2022/12/09 11:44:01;;;;;;;29.20;15.23;;;1.10;99.90;;;;;;6219507;23;20322;-72
2022/12/09 11:46:30;;;;;;;28.33;15.02;;;1.00;99.90;;;;;;6192940;23;20013;-72
2022/12/09 11:49:13;;;;;;;28.20;14.18;;;1.20;99.90;;;;;;6191602;23;20013;-71
2022/12/09 11:51:58;;;;;;;33.08;15.63;;;1.30;99.90;;;;;;6192846;23;20027;-71
2022/12/09 11:54:39;;;;;;;36.17;16.92;;;0.10;99.90;;;;;;6195173;23;20023;-70
2022/12/09 11:57:14;;;;;;;36.35;17.08;;;1.10;99.90;;;;;;6219178;23;20070;-72
2022/12/09 11:59:49;;;;;;;28.50;15.40;;;1.10;99.90;;;;;;6191851;23;20021;-72
2022/12/09 12:02:33;;;;;;;;;;;1.80;99.90;;;;;;6219501;23;20024;-71
2022/12/09 12:05:15;;;;;;;30.70;14.63;;;1.10;99.90;;;;;;6218948;23;19980;-71
2022/12/09 12:07:51;;;;;;;30.27;16.05;;;1.10;99.90;;;;;;6192459;23;20017;-72
2022/12/09 12:10:23;;;;;;;32.35;15.50;;;1.00;99.90;;;;;;6217054;23;20016;-72
2022/12/09 12:13:09;;;;;;;37.97;17.70;;;1.20;99.90;;;;;;6191427;23;20012;-72
2022/12/09 12:16:18;;;;;;;37.60;17.30;;;1.10;99.90;;;;;;6217464;23;20015;-72
2022/12/09 12:18:49;;;;;;;33.35;17.77;;;1.10;99.90;;;;;;6206035;23;20051;-71
2022/12/09 12:21:22;;;;;;;42.40;19.98;;;1.10;99.90;;;;;;6216758;23;20012;-72
2022/12/09 12:24:03;;;;;;;36.67;18.75;;;1.00;99.90;;;;;;6191384;23;20222;-71
2022/12/09 12:26:37;;;;;;;42.67;20.17;;;1.00;99.90;;;;;;6192035;23;20326;-72
2022/12/09 12:29:10;;;;;;;40.55;19.55;;;1.40;99.90;;;;;;6217837;23;20048;-71
2022/12/09 12:31:47;;;;;;;32.95;16.65;;;0.90;99.90;;;;;;6191865;23;20335;-72
2022/12/09 12:34:21;;;;;;;40.40;19.27;;;1.10;99.90;;;;;;6218045;23;20127;-71
2022/12/09 12:37:08;;;;;;;36.65;18.33;;;2.30;99.90;;;;;;6191840;23;20008;-72
2022/12/09 12:39:48;;;;;;;44.88;19.90;;;1.10;99.90;;;;;;6191545;23;20062;-72
2022/12/09 12:42:30;;;;;;;42.17;20.25;;;1.10;99.90;;;;;;6188404;23;20100;-72
2022/12/09 12:48:14;;;;;;;40.28;19.95;;;1.10;99.90;;;;;;6216905;23;20030;-71
2022/12/09 12:50:56;;;;;;;39.97;18.08;;;1.10;99.90;;;;;;6214898;23;20020;-71
2022/12/09 12:53:40;;;;;;;33.33;17.20;;;1.10;99.90;;;;;;6215403;23;20023;-72
2022/12/09 12:56:19;;;;;;;34.38;17.00;;;2.00;99.90;;;;;;6216095;23;20069;-72
2022/12/09 12:59:00;;;;;;;45.20;21.25;;;1.40;99.90;;;;;;6242534;23;20032;-76
2022/12/09 13:01:33;;;;;;;39.20;18.90;;;2.30;99.90;;;;;;6215592;23;20117;-74
2022/12/09 13:04:20;;;;;;;43.30;20.05;;;1.10;99.90;;;;;;6215497;23;20261;-74
2022/12/09 13:07:01;;;;;;;46.50;21.10;;;1.00;99.90;;;;;;6216709;23;20012;-74
2022/12/09 13:09:54;;;;;;;45.03;20.73;;;1.10;99.90;;;;;;6219098;23;20016;-74
2022/12/09 13:15:20;;;;;;;37.90;17.55;;;1.00;99.90;;;;;;6218863;23;20020;-75
2022/12/09 13:17:47;;;;;;;40.50;19.77;;;2.00;99.90;;;;;;6217421;23;20219;-74
2022/12/09 13:20:36;;;;;;;44.33;19.63;;;1.10;99.90;;;;;;6218984;23;20195;-76
2022/12/09 13:23:08;;;;;;;43.20;19.90;;;1.70;99.90;;;;;;6193531;23;20020;-75
2022/12/09 13:25:51;;;;;;;43.50;20.20;;;1.20;99.90;;;;;;6218117;23;20024;-74
2022/12/09 13:28:46;;;;;;;41.67;18.88;;;1.20;99.90;;;;;;6191643;23;20013;-74
2022/12/09 13:31:11;;;;;;;41.22;18.17;;;1.20;99.90;;;;;;6164629;23;20023;-75
2022/12/09 13:33:51;;;;;;;32.97;16.67;;;1.20;99.90;;;;;;6167392;23;20016;-75
2022/12/09 13:36:39;;;;;;;43.67;21.42;;;0.90;99.90;;;;;;6193955;23;20097;-74
2022/12/09 13:39:10;;;;;;;45.78;22.27;;;1.00;99.90;;;;;;6217953;23;20558;-74
2022/12/09 13:44:35;;;;;;;49.28;22.42;;;1.00;99.90;;;;;;6191810;23;20043;-74